createdAt,value
2022-07-26T00:01:48.340Z,97.10
2022-07-26T00:04:17.906Z,97.40
2022-07-26T00:06:45.033Z,97.40
2022-07-26T00:11:39.549Z,97.60
2022-07-26T00:14:08.110Z,98.40
2022-07-26T00:16:36.147Z,98.10
2022-07-26T00:19:04.685Z,98.20
2022-07-26T00:26:26.730Z,99.00
2022-07-26T00:28:53.645Z,98.90
2022-07-26T00:33:48.311Z,99.50
2022-07-26T00:36:15.420Z,99.60
2022-07-26T00:41:09.686Z,99.60
2022-07-26T00:43:36.690Z,99.70
2022-07-26T00:48:31.338Z,99.90
2022-07-26T00:55:53.821Z,99.90
2022-07-26T01:00:48.398Z,99.90
2022-07-26T01:05:43.079Z,99.90
2022-07-26T01:08:10.118Z,99.90
2022-07-26T01:10:37.043Z,99.90
2022-07-26T01:17:58.737Z,99.90
2022-07-26T01:20:25.672Z,99.90
2022-07-26T01:25:32.988Z,99.90
2022-07-26T01:28:10.482Z,99.90
2022-07-26T01:30:37.415Z,99.90
2022-07-26T01:35:33.973Z,99.90
2022-07-26T01:38:00.915Z,99.90
2022-07-26T01:42:55.313Z,99.90
2022-07-26T01:45:24.001Z,99.90
2022-07-26T01:47:50.911Z,99.90
2022-07-26T01:50:18.979Z,99.90
2022-07-26T01:52:45.910Z,99.90
2022-07-26T01:55:12.877Z,99.90
2022-07-26T01:57:39.937Z,99.90
2022-07-26T02:00:08.296Z,99.90
2022-07-26T02:02:35.351Z,99.90
2022-07-26T02:05:02.582Z,99.90
2022-07-26T02:07:37.710Z,99.90
2022-07-26T02:10:06.255Z,99.90
2022-07-26T02:12:33.978Z,99.90
2022-07-26T02:15:01.419Z,99.90
2022-07-26T02:22:23.179Z,99.90
2022-07-26T02:24:51.492Z,99.90
2022-07-26T02:27:19.096Z,99.90
2022-07-26T02:29:46.010Z,99.90
2022-07-26T02:32:13.244Z,99.90
2022-07-26T02:37:07.498Z,99.90
2022-07-26T02:39:34.562Z,99.90
2022-07-26T02:42:02.976Z,99.90
2022-07-26T02:44:30.680Z,99.90
2022-07-26T02:46:57.757Z,99.90
2022-07-26T02:49:24.748Z,99.90
2022-07-26T02:51:52.309Z,99.90
2022-07-26T02:54:19.298Z,99.90
2022-07-26T02:56:46.153Z,99.90
2022-07-26T02:59:13.063Z,99.90
2022-07-26T03:01:40.375Z,99.90
2022-07-26T03:06:35.627Z,99.90
2022-07-26T03:09:03.156Z,99.90
2022-07-26T03:11:30.047Z,99.90
2022-07-26T03:13:56.980Z,99.90
2022-07-26T03:18:56.910Z,99.90
2022-07-26T03:21:24.072Z,99.90
2022-07-26T03:23:51.009Z,99.90
2022-07-26T03:26:17.908Z,99.90
2022-07-26T03:28:44.833Z,99.90
2022-07-26T03:31:13.550Z,99.90
2022-07-26T03:33:40.956Z,99.90
2022-07-26T03:36:11.629Z,99.90
2022-07-26T03:38:42.465Z,99.90
2022-07-26T03:41:09.365Z,99.90
2022-07-26T03:43:40.674Z,99.90
2022-07-26T03:46:07.621Z,99.90
2022-07-26T03:48:34.663Z,99.90
2022-07-26T03:51:01.590Z,99.90
2022-07-26T03:53:28.503Z,99.90
2022-07-26T03:58:42.470Z,99.90
2022-07-26T04:06:05.241Z,99.90
2022-07-26T04:18:24.221Z,99.90
2022-07-26T04:20:52.014Z,99.90
2022-07-26T04:25:46.226Z,99.90
2022-07-26T04:28:13.811Z,99.90
2022-07-26T04:30:41.551Z,99.90
2022-07-26T04:33:08.913Z,99.90
2022-07-26T04:35:36.211Z,99.90
2022-07-26T04:40:33.727Z,99.90
2022-07-26T04:43:02.045Z,99.90
2022-07-26T04:45:29.750Z,99.90
2022-07-26T04:47:56.776Z,99.90
2022-07-26T04:50:24.512Z,99.90
2022-07-26T04:52:52.762Z,99.90
2022-07-26T04:57:47.929Z,99.90
2022-07-26T05:00:22.864Z,99.90
2022-07-26T05:02:53.729Z,99.90
2022-07-26T05:05:21.211Z,99.90
2022-07-26T05:07:50.247Z,99.90
2022-07-26T05:10:18.656Z,99.90
2022-07-26T05:12:46.735Z,99.90
2022-07-26T05:15:14.613Z,99.90
2022-07-26T05:17:43.293Z,99.90
2022-07-26T05:20:12.287Z,99.90
2022-07-26T05:25:07.919Z,99.90
2022-07-26T05:30:02.246Z,99.90
2022-07-26T05:32:29.310Z,99.90
2022-07-26T05:37:23.534Z,99.90
2022-07-26T05:42:17.782Z,99.90
2022-07-26T05:44:44.691Z,99.90
2022-07-26T05:49:40.684Z,99.90
2022-07-26T05:52:08.790Z,99.90
2022-07-26T05:54:36.546Z,99.90
2022-07-26T05:57:04.202Z,99.90
2022-07-26T05:59:31.310Z,99.90
2022-07-26T06:01:58.399Z,99.90
2022-07-26T06:04:26.639Z,99.90
2022-07-26T06:06:54.876Z,99.90
2022-07-26T06:09:27.116Z,99.90
2022-07-26T06:11:54.281Z,99.90
2022-07-26T06:14:21.215Z,99.90
2022-07-26T06:16:48.858Z,99.90
2022-07-26T06:19:16.721Z,99.30
2022-07-26T06:21:45.702Z,99.90
2022-07-26T06:24:13.072Z,99.90
2022-07-26T06:26:40.501Z,99.90
2022-07-26T06:29:07.718Z,99.90
2022-07-26T06:34:02.352Z,99.90
2022-07-26T06:38:58.625Z,97.80
2022-07-26T06:41:26.073Z,99.40
2022-07-26T06:43:53.479Z,96.70
2022-07-26T06:46:21.378Z,98.70
2022-07-26T06:48:52.724Z,96.30
2022-07-26T06:51:20.143Z,98.00
2022-07-26T06:53:47.076Z,98.10
2022-07-26T06:56:15.119Z,97.50
2022-07-26T07:01:09.982Z,97.20
2022-07-26T07:06:04.472Z,95.90
2022-07-26T07:10:58.934Z,95.20
2022-07-26T07:13:25.842Z,94.90
2022-07-26T07:15:52.865Z,94.40
2022-07-26T07:18:21.342Z,94.10
2022-07-26T07:23:15.575Z,93.20
2022-07-26T07:28:12.085Z,92.70
2022-07-26T07:30:39.208Z,92.00
2022-07-26T07:38:17.324Z,91.80
2022-07-26T07:43:12.158Z,88.90
2022-07-26T07:45:39.208Z,90.70
2022-07-26T07:48:06.424Z,89.90
2022-07-26T07:50:34.225Z,87.80
2022-07-26T07:53:02.085Z,88.60
2022-07-26T08:00:38.887Z,85.30
2022-07-26T08:03:05.984Z,88.00
2022-07-26T08:05:32.936Z,88.50
2022-07-26T08:12:54.918Z,88.60
2022-07-26T08:15:23.526Z,86.50
2022-07-26T08:17:54.615Z,84.70
2022-07-26T08:25:18.189Z,83.00
2022-07-26T08:30:30.136Z,79.80
2022-07-26T08:32:57.081Z,81.40
2022-07-26T08:35:24.328Z,79.40
2022-07-26T08:42:54.413Z,76.30
2022-07-26T08:45:26.693Z,74.20
2022-07-26T08:48:16.048Z,75.10
2022-07-26T08:50:41.950Z,75.40
2022-07-26T08:53:10.215Z,74.10
2022-07-26T08:56:04.285Z,76.00
2022-07-26T08:58:24.209Z,72.80
2022-07-26T09:01:08.570Z,71.60
2022-07-26T09:03:38.202Z,70.50
2022-07-26T09:06:31.244Z,71.20
2022-07-26T09:09:11.484Z,71.40
2022-07-26T09:11:38.562Z,70.90
2022-07-26T09:14:06.461Z,69.00
2022-07-26T09:16:39.372Z,68.50
2022-07-26T09:19:22.861Z,71.60
2022-07-26T09:21:50.830Z,70.70
2022-07-26T09:24:41.604Z,67.40
2022-07-26T09:27:11.887Z,66.20
2022-07-26T09:29:52.921Z,65.80
2022-07-26T09:32:27.296Z,64.80
2022-07-26T09:34:58.858Z,65.30
2022-07-26T09:37:36.066Z,65.20
2022-07-26T09:40:06.641Z,63.40
2022-07-26T09:45:01.532Z,68.40
2022-07-26T09:47:38.705Z,62.60
2022-07-26T09:50:20.142Z,66.70
2022-07-26T09:53:13.454Z,63.20
2022-07-26T09:55:46.528Z,62.70
2022-07-26T09:58:14.773Z,64.50
2022-07-26T10:00:42.961Z,63.30
2022-07-26T10:03:10.441Z,62.50
2022-07-26T10:08:05.583Z,62.10
2022-07-26T10:10:45.895Z,59.70
2022-07-26T10:15:51.055Z,58.90
2022-07-26T10:18:36.592Z,56.90
2022-07-26T10:21:21.029Z,58.80
2022-07-26T10:23:56.958Z,57.70
2022-07-26T10:26:32.496Z,56.00
2022-07-26T10:29:17.754Z,55.70
2022-07-26T10:31:48.852Z,54.80
2022-07-26T10:34:33.607Z,53.90
2022-07-26T10:37:03.942Z,53.90
2022-07-26T10:39:30.830Z,56.20
2022-07-26T10:42:04.024Z,54.00
2022-07-26T10:44:35.818Z,52.90
2022-07-26T10:47:09.016Z,54.20
2022-07-26T10:49:39.825Z,53.60
2022-07-26T10:52:15.566Z,53.90
2022-07-26T10:54:58.161Z,51.80
2022-07-26T10:57:30.856Z,52.10
2022-07-26T10:59:59.124Z,52.40
2022-07-26T11:02:32.222Z,53.30
2022-07-26T11:05:14.856Z,52.30
2022-07-26T11:07:57.661Z,49.50
2022-07-26T11:10:34.392Z,50.60
2022-07-26T11:13:05.649Z,51.20
2022-07-26T11:15:34.497Z,50.70
2022-07-26T11:18:08.614Z,50.20
2022-07-26T11:25:30.993Z,48.90
2022-07-26T11:28:07.411Z,49.30
2022-07-26T11:33:02.557Z,50.10
2022-07-26T11:38:09.552Z,46.80
2022-07-26T11:40:46.144Z,47.00
2022-07-26T11:45:40.851Z,49.10
2022-07-26T11:50:35.152Z,49.10
2022-07-26T11:53:02.104Z,54.50
2022-07-26T11:55:30.421Z,51.20
2022-07-26T11:58:04.578Z,54.90
2022-07-26T12:00:31.675Z,53.30
2022-07-26T12:02:59.101Z,57.00
2022-07-26T12:05:27.679Z,55.00
2022-07-26T12:08:00.168Z,56.00
2022-07-26T12:10:28.268Z,52.60
2022-07-26T12:13:15.111Z,52.60
2022-07-26T12:15:46.014Z,53.70
2022-07-26T12:18:25.406Z,57.20
2022-07-26T12:21:08.422Z,50.80
2022-07-26T12:23:43.480Z,56.70
2022-07-26T12:26:25.329Z,54.90
2022-07-26T12:28:52.676Z,56.40
2022-07-26T12:31:26.788Z,55.00
2022-07-26T12:33:53.856Z,56.50
2022-07-26T12:36:28.450Z,53.00
2022-07-26T12:41:37.590Z,52.50
2022-07-26T12:44:06.579Z,59.70
2022-07-26T12:46:34.925Z,59.70
2022-07-26T12:49:02.450Z,56.00
2022-07-26T12:53:56.907Z,57.20
2022-07-26T12:56:23.830Z,60.60
2022-07-26T12:58:50.767Z,61.30
2022-07-26T13:01:17.818Z,60.40
2022-07-26T13:03:44.807Z,63.00
2022-07-26T13:13:35.129Z,64.50
2022-07-26T13:20:59.927Z,64.80
2022-07-26T13:23:27.026Z,65.40
2022-07-26T13:25:53.930Z,66.40
2022-07-26T13:28:21.632Z,66.00
2022-07-26T13:30:48.655Z,66.70
2022-07-26T13:33:16.767Z,66.00
2022-07-26T13:35:44.105Z,59.60
2022-07-26T13:40:38.442Z,65.10
2022-07-26T13:43:05.523Z,66.30
2022-07-26T13:45:32.550Z,66.40
2022-07-26T13:47:59.882Z,61.90
2022-07-26T13:50:30.235Z,60.60
2022-07-26T13:52:57.550Z,63.00
2022-07-26T13:55:25.186Z,60.10
2022-07-26T14:00:26.240Z,62.20
2022-07-26T14:02:53.594Z,64.00
2022-07-26T14:07:47.930Z,74.80
2022-07-26T14:10:14.914Z,71.80
2022-07-26T14:12:41.925Z,76.60
2022-07-26T14:15:15.218Z,78.40
2022-07-26T14:17:45.686Z,79.20
2022-07-26T14:20:13.187Z,79.40
2022-07-26T14:22:40.129Z,78.70
2022-07-26T14:25:07.905Z,80.60
2022-07-26T14:30:02.487Z,81.70
2022-07-26T14:32:29.552Z,79.40
2022-07-26T14:34:56.444Z,82.50
2022-07-26T14:37:43.117Z,82.50
2022-07-26T14:40:11.309Z,82.80
2022-07-26T14:42:38.186Z,83.70
2022-07-26T14:45:05.703Z,83.10
2022-07-26T14:50:05.872Z,84.70
2022-07-26T14:59:55.830Z,87.40
2022-07-26T15:02:23.068Z,87.00
2022-07-26T15:04:50.059Z,89.00
2022-07-26T15:09:44.231Z,90.40
2022-07-26T15:17:05.732Z,90.00
2022-07-26T15:19:32.606Z,91.70
2022-07-26T15:22:02.264Z,92.10
2022-07-26T15:24:29.188Z,97.10
2022-07-26T15:26:56.369Z,98.50
2022-07-26T15:31:50.703Z,99.90
2022-07-26T15:41:48.374Z,99.90
2022-07-26T15:44:20.430Z,99.90
2022-07-26T15:46:49.870Z,99.90
2022-07-26T15:49:18.328Z,99.90
2022-07-26T15:51:45.496Z,99.90
2022-07-26T15:54:14.591Z,99.90
2022-07-26T15:59:10.237Z,99.90
2022-07-26T16:01:37.473Z,99.90
2022-07-26T16:04:05.809Z,99.90
2022-07-26T16:06:34.036Z,99.90
2022-07-26T16:09:19.318Z,99.90
2022-07-26T16:11:47.913Z,99.90
2022-07-26T16:14:15.642Z,99.90
2022-07-26T16:16:42.819Z,99.90
2022-07-26T16:19:10.329Z,99.90
2022-07-26T16:21:38.210Z,99.90
2022-07-26T16:24:07.398Z,99.90
2022-07-26T16:29:02.510Z,99.90
2022-07-26T16:31:29.721Z,99.90
2022-07-26T16:36:24.038Z,99.90
2022-07-26T16:38:50.915Z,99.90
2022-07-26T16:43:45.679Z,99.90
2022-07-26T16:48:39.938Z,99.90
2022-07-26T16:51:07.271Z,99.90
2022-07-26T16:53:34.279Z,99.90
2022-07-26T16:56:01.211Z,99.90
2022-07-26T17:03:23.740Z,99.90
2022-07-26T17:05:51.015Z,99.90
2022-07-26T17:08:18.460Z,99.90
2022-07-26T17:10:45.499Z,99.90
2022-07-26T17:13:12.536Z,99.90
2022-07-26T17:15:39.608Z,99.90
2022-07-26T17:18:06.543Z,99.90
2022-07-26T17:20:33.441Z,99.90
2022-07-26T17:25:27.731Z,99.90
2022-07-26T17:32:49.699Z,99.90
2022-07-26T17:35:16.769Z,99.90
2022-07-26T17:37:43.662Z,99.90
2022-07-26T17:40:12.546Z,99.90
2022-07-26T17:42:39.578Z,99.90
2022-07-26T17:45:08.601Z,99.90
2022-07-26T17:52:52.798Z,99.90
2022-07-26T17:55:20.424Z,99.90
2022-07-26T17:57:48.499Z,99.90
2022-07-26T18:00:22.015Z,99.90
2022-07-26T18:02:49.343Z,99.90
2022-07-26T18:05:16.784Z,99.90
2022-07-26T18:10:12.118Z,99.90
2022-07-26T18:12:39.563Z,99.90
2022-07-26T18:15:07.523Z,99.90
2022-07-26T18:17:34.582Z,99.90
2022-07-26T18:20:01.578Z,99.90
2022-07-26T18:22:28.600Z,99.90
2022-07-26T18:27:23.541Z,99.90
2022-07-26T18:32:19.508Z,99.90
2022-07-26T18:34:52.309Z,99.90
2022-07-26T18:37:20.064Z,99.90
2022-07-26T18:39:47.377Z,99.90
2022-07-26T18:42:14.309Z,99.90
2022-07-26T18:52:08.802Z,99.90
2022-07-26T18:54:36.602Z,99.90
2022-07-26T18:57:04.871Z,99.90
2022-07-26T18:59:31.915Z,99.90
2022-07-26T19:02:00.195Z,99.90
2022-07-26T19:04:27.472Z,99.90
2022-07-26T19:06:54.881Z,99.90
2022-07-26T19:11:49.140Z,99.90
2022-07-26T19:16:43.439Z,99.90
2022-07-26T19:19:10.678Z,99.90
2022-07-26T19:26:36.096Z,99.90
2022-07-26T19:29:03.146Z,99.90
2022-07-26T19:31:30.097Z,99.90
2022-07-26T19:36:25.758Z,99.90
2022-07-26T19:38:54.390Z,99.90
2022-07-26T19:46:15.964Z,99.90
2022-07-26T19:48:42.958Z,99.90
2022-07-26T19:51:09.889Z,99.90
2022-07-26T19:53:36.846Z,99.90
2022-07-26T19:56:04.747Z,99.90
2022-07-26T19:58:31.813Z,99.90
2022-07-26T20:03:26.385Z,99.90
2022-07-26T20:13:17.234Z,99.90
2022-07-26T20:15:44.323Z,99.90
2022-07-26T20:18:11.468Z,99.90
2022-07-26T20:20:38.365Z,99.90
2022-07-26T20:25:34.509Z,99.90
2022-07-26T20:28:01.360Z,99.90
2022-07-26T20:32:56.357Z,99.90
2022-07-26T20:40:18.633Z,99.90
2022-07-26T20:42:47.670Z,99.90
2022-07-26T20:47:44.493Z,99.90
2022-07-26T20:55:07.752Z,99.90
2022-07-26T20:57:35.094Z,99.90
2022-07-26T21:00:02.315Z,99.90
2022-07-26T21:04:57.098Z,99.90
2022-07-26T21:07:24.290Z,99.90
2022-07-26T21:10:12.090Z,99.90
2022-07-26T21:12:38.976Z,99.90
2022-07-26T21:15:06.433Z,99.90
2022-07-26T21:17:34.852Z,99.90
2022-07-26T21:20:02.969Z,99.90
2022-07-26T21:22:30.131Z,99.90
2022-07-26T21:24:57.271Z,99.90
2022-07-26T21:27:24.179Z,99.90
2022-07-26T21:29:51.073Z,99.90
2022-07-26T21:32:18.009Z,99.90
2022-07-26T21:34:44.954Z,99.90
2022-07-26T21:37:11.922Z,99.90
2022-07-26T21:39:38.846Z,99.90
2022-07-26T21:42:06.057Z,99.90
2022-07-26T21:44:33.330Z,99.90
2022-07-26T21:47:00.395Z,99.90
2022-07-26T21:49:27.430Z,99.90
2022-07-26T21:51:54.359Z,99.90
2022-07-26T21:54:21.350Z,99.90
2022-07-26T21:56:48.315Z,99.90
2022-07-26T22:01:43.406Z,99.90
2022-07-26T22:04:10.539Z,99.90
2022-07-26T22:06:37.974Z,99.90
2022-07-26T22:16:27.491Z,99.90
2022-07-26T22:18:54.478Z,99.90
2022-07-26T22:21:21.423Z,99.90
2022-07-26T22:23:48.680Z,99.90
2022-07-26T22:28:43.256Z,99.90
2022-07-26T22:31:10.295Z,99.90
2022-07-26T22:33:37.387Z,99.90
2022-07-26T22:38:31.799Z,99.90
2022-07-26T22:43:27.032Z,99.90
2022-07-26T22:45:54.079Z,99.90
2022-07-26T22:50:48.384Z,99.90
2022-07-26T22:53:16.427Z,99.90
2022-07-26T22:55:43.416Z,99.90
2022-07-26T23:03:08.989Z,99.90
2022-07-26T23:05:47.541Z,99.90
2022-07-26T23:08:45.966Z,99.90
2022-07-26T23:11:02.757Z,99.90
2022-07-26T23:13:31.714Z,99.90
2022-07-26T23:18:30.374Z,99.90
2022-07-26T23:20:57.612Z,99.90
2022-07-26T23:23:25.274Z,99.90
2022-07-26T23:28:35.655Z,99.90
2022-07-26T23:31:11.813Z,99.90
2022-07-26T23:33:51.540Z,99.90
2022-07-26T23:36:25.283Z,99.90
2022-07-26T23:43:47.606Z,99.90
2022-07-26T23:48:41.921Z,99.90
2022-07-26T23:51:08.916Z,99.90
2022-07-26T23:53:36.142Z,99.90
2022-07-26T23:58:30.360Z,99.90
